SBKP/CPQ METAR and TAF weather

Enter ICAO airport designator
Station Type Date Time Source
SBKP METAR 2018/12/12 12:00 UTC NOAA

SBKP 121200Z 01009KT 320V040 CAVOK 28/14 Q1022


Station Type Date Time Source
SBKP Decoded METAR 2018/12/12 12:00 UTC NOAA

Campinas Aeroporto , Brazil (SBKP) 23-00S 047-08W 661M
Dec 12, 2018 - 07:00 AM EST / 2018.12.12 1200 UTC
Wind: from the N (010 degrees) at 10 MPH (9 KT) (direction variable):0
Visibility: greater than 7 mile(s):0
Temperature: 82 F (28 C)
Dew Point: 57 F (14 C)
Relative Humidity: 42%
Pressure (altimeter): 30.18 in. Hg (1022 hPa)
ob: SBKP 121200Z 01009KT 320V040 CAVOK 28/14 Q1022
cycle: 12

Station Type Date Time Source
SBKP TAF 2018/12/12 12:33 UTC NOAA

TAF TAF SBKP 120922Z 1212/1312 02010KT CAVOK TX33/1217Z TN21/1309Z
BECMG 1212/1214 33010KT SCT045
BECMG 1217/1219 20005KT PROB30 1219/1221 SHRA SCT040 FEW050TCU
BECMG 1221/1223 12005KT CAVOK
BECMG 1302/1304 09005KT
RMK PGQ


Example: see airport list